Albany, California
Current Conditions -  °F | °C
As of 8:53 AM on Wednesday 22 Oct 2014 (Local Time) from KOAK Reporting Station
Scattered Clouds Scattered Clouds  
Wind Chill: 58°   Ceiling: Unl
Heat Index: 58°   Visibility: 10mi
Dew Point: 53°   Wind: 6mph
Humidity: 84%   Direction: 130°SE
Pressure: 30.07"   Gusts: NA
Location:  37.89°N, 122.29°W
Report Text: KOAK 221553Z 13005KT 10SM FEW030 SCT200 14/12 A3007 RMK AO2 SLP182 T01440117
Loading
Personal Weather Stations






























Interactive Weather Map
Tropical Storm Tracking
New forecast layout! Learn more

10-Day Weather Forecast

Advertisements
Track Severe Weather on mobile